createdAt,value
2022-10-16T00:01:08.989Z,56.53
2022-10-16T00:03:36.663Z,54.63
2022-10-16T00:06:04.625Z,57.17
2022-10-16T00:08:32.047Z,54.50
2022-10-16T00:11:05.424Z,56.05
2022-10-16T00:13:33.987Z,55.17
2022-10-16T00:16:02.398Z,54.92
2022-10-16T00:18:30.033Z,53.13
2022-10-16T00:21:02.656Z,54.90
2022-10-16T00:23:29.739Z,54.30
2022-10-16T00:25:59.958Z,54.70
2022-10-16T00:28:28.104Z,52.33
2022-10-16T00:30:55.358Z,50.15
2022-10-16T00:33:22.883Z,50.25
2022-10-16T00:35:51.177Z,49.20
2022-10-16T00:38:18.580Z,47.67
2022-10-16T00:40:45.684Z,48.67
2022-10-16T00:43:16.078Z,50.35
2022-10-16T00:45:43.191Z,48.75
2022-10-16T00:48:15.257Z,52.45
2022-10-16T00:50:44.850Z,51.67
2022-10-16T00:53:12.702Z,53.03
2022-10-16T00:55:42.411Z,51.60
2022-10-16T00:58:10.645Z,49.75
2022-10-16T01:00:37.818Z,54.05
2022-10-16T01:03:22.982Z,53.70
2022-10-16T01:05:58.784Z,51.38
2022-10-16T01:08:36.741Z,51.80
2022-10-16T01:11:21.009Z,50.80
2022-10-16T01:13:54.561Z,50.05
2022-10-16T01:16:35.614Z,46.20
2022-10-16T01:19:13.177Z,45.72
2022-10-16T01:21:45.179Z,47.92
2022-10-16T01:24:38.779Z,47.22
2022-10-16T01:27:12.263Z,44.65
2022-10-16T01:29:40.431Z,46.47
2022-10-16T01:32:17.065Z,44.58
2022-10-16T01:34:51.741Z,45.20
2022-10-16T01:37:32.636Z,46.17
2022-10-16T01:40:01.689Z,43.20
2022-10-16T01:42:35.775Z,43.35
2022-10-16T01:45:07.623Z,43.90
2022-10-16T01:47:37.509Z,45.08
2022-10-16T01:50:06.443Z,44.40
2022-10-16T01:52:37.195Z,44.80
2022-10-16T01:55:07.178Z,44.45
2022-10-16T01:57:38.522Z,46.60
2022-10-16T02:00:09.976Z,47.60
2022-10-16T02:02:43.379Z,45.75
2022-10-16T02:05:18.037Z,47.60
2022-10-16T02:10:12.482Z,45.90
2022-10-16T02:12:45.463Z,47.38
2022-10-16T02:15:12.764Z,47.75
2022-10-16T02:17:40.258Z,46.97
2022-10-16T02:20:07.625Z,47.15
2022-10-16T02:22:40.485Z,46.83
2022-10-16T02:25:11.807Z,46.42
2022-10-16T02:27:45.255Z,48.40
2022-10-16T02:30:28.367Z,44.50
2022-10-16T02:32:57.266Z,47.25
2022-10-16T02:35:25.558Z,49.47
2022-10-16T02:37:53.415Z,46.47
2022-10-16T02:40:24.387Z,46.15
2022-10-16T02:42:54.355Z,46.47
2022-10-16T02:45:22.158Z,47.92
2022-10-16T02:47:49.671Z,46.50
2022-10-16T02:50:17.130Z,46.85
2022-10-16T02:52:44.291Z,46.80
2022-10-16T02:55:11.418Z,47.50
2022-10-16T02:57:39.648Z,46.85
2022-10-16T03:00:08.415Z,45.92
2022-10-16T03:02:35.562Z,46.85
2022-10-16T03:05:02.669Z,48.03
2022-10-16T03:07:29.802Z,46.78
2022-10-16T03:09:56.861Z,46.50
2022-10-16T03:12:24.002Z,46.35
2022-10-16T03:14:51.136Z,46.67
2022-10-16T03:17:18.506Z,46.13
2022-10-16T03:19:45.871Z,46.33
2022-10-16T03:22:13.005Z,46.85
2022-10-16T03:24:40.340Z,43.75
2022-10-16T03:27:07.868Z,45.08
2022-10-16T03:29:35.242Z,45.75
2022-10-16T03:32:02.810Z,44.55
2022-10-16T03:34:29.904Z,45.35
2022-10-16T03:36:57.289Z,44.83
2022-10-16T03:39:24.483Z,47.28
2022-10-16T03:41:51.558Z,47.60
2022-10-16T03:44:18.710Z,46.50
2022-10-16T03:46:45.746Z,48.65
2022-10-16T03:49:13.030Z,45.92
2022-10-16T03:51:40.191Z,48.75
2022-10-16T03:54:07.328Z,47.63
2022-10-16T03:56:34.462Z,47.97
2022-10-16T03:59:01.552Z,48.28
2022-10-16T04:01:28.688Z,47.55
2022-10-16T04:03:55.820Z,45.63
2022-10-16T04:06:23.361Z,48.83
2022-10-16T04:08:50.371Z,49.65
2022-10-16T04:11:17.579Z,50.10
2022-10-16T04:13:44.891Z,49.63
2022-10-16T04:16:12.057Z,48.35
2022-10-16T04:18:39.148Z,47.53
2022-10-16T04:21:07.426Z,45.72
2022-10-16T04:23:35.072Z,49.35
2022-10-16T04:26:02.321Z,47.70
2022-10-16T04:28:29.697Z,50.05
2022-10-16T04:30:56.782Z,46.50
2022-10-16T04:33:23.994Z,49.85
2022-10-16T04:35:58.491Z,47.38
2022-10-16T04:40:53.718Z,47.83
2022-10-16T04:43:21.383Z,48.80
2022-10-16T04:45:48.639Z,48.13
2022-10-16T04:48:16.107Z,47.65
2022-10-16T04:50:43.571Z,49.70
2022-10-16T04:53:10.719Z,46.05
2022-10-16T04:55:38.510Z,47.83
2022-10-16T04:58:06.301Z,47.20
2022-10-16T05:00:33.859Z,46.72
2022-10-16T05:03:01.915Z,49.20
2022-10-16T05:05:29.466Z,48.80
2022-10-16T05:07:56.539Z,46.67
2022-10-16T05:10:23.711Z,46.67
2022-10-16T05:12:50.954Z,44.78
2022-10-16T05:15:18.510Z,47.63
2022-10-16T05:17:45.882Z,47.22
2022-10-16T05:20:13.542Z,46.30
2022-10-16T05:22:40.704Z,46.75
2022-10-16T05:25:07.969Z,48.88
2022-10-16T05:27:35.518Z,49.55
2022-10-16T05:30:02.966Z,54.08
2022-10-16T05:32:30.141Z,50.65
2022-10-16T05:34:57.155Z,52.80
2022-10-16T05:37:24.778Z,52.08
2022-10-16T05:39:52.118Z,51.55
2022-10-16T05:42:20.037Z,54.63
2022-10-16T05:44:47.605Z,53.65
2022-10-16T05:47:15.427Z,51.20
2022-10-16T05:49:42.592Z,50.17
2022-10-16T05:52:09.881Z,47.42
2022-10-16T05:54:37.029Z,47.53
2022-10-16T05:57:06.671Z,47.28
2022-10-16T05:59:33.959Z,49.75
2022-10-16T06:02:01.636Z,50.10
2022-10-16T06:04:29.109Z,47.50
2022-10-16T06:07:01.606Z,48.28
2022-10-16T06:09:28.878Z,46.30
2022-10-16T06:11:56.130Z,42.53
2022-10-16T06:14:23.442Z,44.47
2022-10-16T06:16:50.495Z,40.35
2022-10-16T06:19:18.627Z,41.47
2022-10-16T06:21:45.835Z,38.05
2022-10-16T06:24:13.170Z,39.67
2022-10-16T06:26:40.421Z,39.65
2022-10-16T06:29:09.998Z,40.05
2022-10-16T06:31:37.226Z,39.78
2022-10-16T06:34:06.740Z,43.85
2022-10-16T06:36:33.910Z,41.15
2022-10-16T06:39:03.924Z,45.03
2022-10-16T06:41:32.511Z,43.03
2022-10-16T06:44:10.072Z,44.95
2022-10-16T06:46:37.612Z,43.42
2022-10-16T06:49:04.718Z,43.03
2022-10-16T06:51:36.816Z,42.75
2022-10-16T06:54:06.442Z,43.90
2022-10-16T06:56:34.966Z,41.85
2022-10-16T06:59:02.447Z,43.38
2022-10-16T07:01:30.551Z,47.35
2022-10-16T07:03:57.939Z,43.20
2022-10-16T07:06:26.936Z,42.70
2022-10-16T07:08:54.701Z,39.72
2022-10-16T07:11:24.349Z,40.70
2022-10-16T07:13:55.867Z,41.38
2022-10-16T07:16:28.282Z,36.92
2022-10-16T07:19:00.632Z,37.40
2022-10-16T07:21:32.534Z,39.83
2022-10-16T07:24:02.452Z,38.75
2022-10-16T07:26:32.197Z,37.45
2022-10-16T07:28:59.733Z,35.53
2022-10-16T07:31:27.459Z,35.60
2022-10-16T07:33:55.302Z,33.88
2022-10-16T07:36:22.882Z,33.38
2022-10-16T07:38:51.858Z,32.75
2022-10-16T07:41:21.434Z,31.50
2022-10-16T07:43:50.858Z,30.55
2022-10-16T07:46:19.441Z,29.70
2022-10-16T07:48:48.312Z,30.50
2022-10-16T07:51:21.696Z,30.08
2022-10-16T07:53:50.998Z,32.65
2022-10-16T07:56:19.359Z,33.78
2022-10-16T07:58:46.976Z,31.80
2022-10-16T08:01:16.334Z,33.90
2022-10-16T08:03:45.035Z,31.70
2022-10-16T08:06:12.571Z,31.40
2022-10-16T08:08:40.441Z,31.70
2022-10-16T08:11:08.261Z,32.58
2022-10-16T08:13:36.763Z,34.03
2022-10-16T08:16:09.845Z,31.40
2022-10-16T08:18:38.945Z,31.95
2022-10-16T08:21:21.672Z,31.83
2022-10-16T08:23:55.086Z,31.85
2022-10-16T08:26:27.461Z,30.08
2022-10-16T08:28:55.590Z,28.60
2022-10-16T08:31:23.957Z,31.77
2022-10-16T08:33:51.283Z,34.50
2022-10-16T08:36:18.380Z,36.63
2022-10-16T08:38:50.071Z,35.67
2022-10-16T08:41:50.772Z,33.20
2022-10-16T08:44:18.862Z,30.95
2022-10-16T08:46:54.718Z,29.95
2022-10-16T08:49:22.154Z,30.52
2022-10-16T08:51:50.591Z,28.90
2022-10-16T08:54:25.155Z,30.30
2022-10-16T08:56:52.478Z,30.10
2022-10-16T08:59:20.363Z,30.38
2022-10-16T09:01:53.498Z,31.52
2022-10-16T09:04:54.202Z,31.02
2022-10-16T09:07:30.771Z,29.58
2022-10-16T09:09:59.856Z,29.25
2022-10-16T09:12:46.941Z,30.45
2022-10-16T09:15:22.248Z,30.45
2022-10-16T09:17:55.357Z,31.80
2022-10-16T09:20:43.428Z,33.58
2022-10-16T09:23:20.918Z,33.63
2022-10-16T09:25:50.683Z,34.75
2022-10-16T09:28:21.913Z,35.28
2022-10-16T09:30:52.047Z,33.78
2022-10-16T09:33:22.248Z,34.38
2022-10-16T09:35:54.123Z,34.63
2022-10-16T09:38:23.930Z,33.38
2022-10-16T09:40:58.863Z,33.90
2022-10-16T09:43:40.637Z,33.72
2022-10-16T09:46:23.246Z,32.13
2022-10-16T09:48:52.390Z,34.28
2022-10-16T09:51:25.091Z,33.80
2022-10-16T09:53:58.393Z,32.22
2022-10-16T09:56:28.073Z,31.83
2022-10-16T09:58:58.358Z,33.40
2022-10-16T10:01:47.767Z,32.65
2022-10-16T10:04:15.789Z,31.77
2022-10-16T10:06:49.957Z,33.22
2022-10-16T10:09:21.138Z,31.67
2022-10-16T10:11:52.494Z,31.83
2022-10-16T10:14:31.914Z,32.97
2022-10-16T10:17:06.566Z,31.00
2022-10-16T10:19:44.043Z,32.67
2022-10-16T10:22:43.490Z,32.40
2022-10-16T10:25:20.289Z,32.85
2022-10-16T10:28:11.727Z,31.15
2022-10-16T10:30:51.430Z,31.70
2022-10-16T10:33:34.358Z,32.50
2022-10-16T10:36:09.073Z,32.05
2022-10-16T10:38:48.816Z,33.28
2022-10-16T10:41:36.222Z,33.63
2022-10-16T10:44:24.918Z,32.42
2022-10-16T10:46:58.366Z,32.75
2022-10-16T10:49:51.130Z,34.92
2022-10-16T10:52:40.989Z,34.35
2022-10-16T10:55:44.329Z,34.55
2022-10-16T10:58:38.781Z,33.90
2022-10-16T11:01:12.789Z,33.78
2022-10-16T11:04:03.320Z,33.28
2022-10-16T11:06:52.261Z,33.05
2022-10-16T11:09:25.891Z,34.17
2022-10-16T11:12:02.650Z,34.40
2022-10-16T11:14:37.370Z,33.65
2022-10-16T11:17:17.718Z,34.22
2022-10-16T11:19:55.178Z,33.33
2022-10-16T11:22:35.459Z,32.40
2022-10-16T11:25:27.155Z,34.42
2022-10-16T11:28:02.595Z,34.85
2022-10-16T11:30:34.552Z,34.03
2022-10-16T11:33:09.417Z,34.03
2022-10-16T11:35:44.710Z,32.70
2022-10-16T11:38:35.621Z,32.45
2022-10-16T11:41:22.656Z,30.00
2022-10-16T11:44:01.136Z,31.13
2022-10-16T11:46:31.206Z,31.45
2022-10-16T11:49:10.528Z,31.20
2022-10-16T11:51:43.231Z,28.80
2022-10-16T11:54:34.146Z,29.05
2022-10-16T11:57:08.535Z,29.35
2022-10-16T12:02:43.062Z,28.52
2022-10-16T12:05:18.766Z,26.38
2022-10-16T12:07:56.498Z,26.23
2022-10-16T12:10:29.280Z,26.55
2022-10-16T12:12:57.927Z,26.83
2022-10-16T12:15:40.892Z,25.85
2022-10-16T12:18:29.856Z,27.15
2022-10-16T12:21:07.008Z,27.08
2022-10-16T12:23:55.352Z,28.00
2022-10-16T12:26:32.778Z,27.88
2022-10-16T12:29:34.015Z,28.60
2022-10-16T12:32:02.047Z,27.27
2022-10-16T12:34:33.358Z,27.85
2022-10-16T12:37:10.644Z,29.08
2022-10-16T12:39:39.080Z,28.95
2022-10-16T12:42:30.395Z,27.75
2022-10-16T12:44:57.891Z,28.15
2022-10-16T12:47:38.928Z,28.67
2022-10-16T12:50:26.015Z,30.25
2022-10-16T12:52:53.232Z,30.42
2022-10-16T12:55:22.813Z,30.30
2022-10-16T12:58:09.847Z,29.13
2022-10-16T13:00:46.746Z,31.67
2022-10-16T13:03:49.517Z,31.38
2022-10-16T13:06:40.591Z,29.38
2022-10-16T13:09:36.447Z,30.90
2022-10-16T13:12:14.623Z,30.92
2022-10-16T13:15:10.641Z,31.80
2022-10-16T13:18:01.034Z,32.92
2022-10-16T13:20:36.347Z,30.77
2022-10-16T13:23:28.250Z,31.17
2022-10-16T13:26:22.715Z,29.08
2022-10-16T13:28:50.485Z,30.42
2022-10-16T13:31:26.487Z,30.58
2022-10-16T13:33:57.890Z,29.75
2022-10-16T13:36:29.170Z,29.10
2022-10-16T13:39:21.943Z,30.60
2022-10-16T13:42:16.219Z,29.52
2022-10-16T13:44:49.578Z,29.58
2022-10-16T13:47:20.456Z,30.30
2022-10-16T13:49:48.420Z,30.13
2022-10-16T13:52:21.023Z,30.45
2022-10-16T13:54:49.353Z,31.17
2022-10-16T13:57:26.837Z,29.70
2022-10-16T13:59:56.441Z,29.67
2022-10-16T14:02:32.343Z,30.83
2022-10-16T14:05:00.147Z,29.80
2022-10-16T14:07:30.246Z,29.80
2022-10-16T14:10:02.237Z,31.33
2022-10-16T14:12:29.661Z,31.05
2022-10-16T14:14:59.621Z,30.30
2022-10-16T14:17:36.775Z,31.67
2022-10-16T14:20:07.527Z,31.05
2022-10-16T14:22:46.559Z,31.77
2022-10-16T14:25:28.083Z,30.25
2022-10-16T14:28:03.427Z,31.98
2022-10-16T14:30:33.776Z,31.20
2022-10-16T14:33:05.868Z,32.35
2022-10-16T14:35:34.222Z,31.63
2022-10-16T14:38:03.116Z,30.67
2022-10-16T14:40:34.274Z,30.50
2022-10-16T14:43:04.323Z,30.75
2022-10-16T14:45:34.855Z,31.77
2022-10-16T14:48:06.675Z,31.10
2022-10-16T14:50:35.519Z,32.20
2022-10-16T14:53:02.593Z,31.10
2022-10-16T14:55:30.934Z,30.23
2022-10-16T14:58:02.562Z,33.15
2022-10-16T15:00:30.417Z,31.52
2022-10-16T15:02:59.191Z,31.40
2022-10-16T15:05:28.946Z,32.55
2022-10-16T15:07:56.610Z,32.67
2022-10-16T15:10:26.158Z,31.52
2022-10-16T15:12:53.591Z,31.02
2022-10-16T15:15:25.207Z,30.80
2022-10-16T15:17:54.675Z,32.45
2022-10-16T15:20:21.848Z,31.75
2022-10-16T15:22:49.003Z,32.28
2022-10-16T15:25:38.217Z,32.67
2022-10-16T15:28:06.264Z,32.33
2022-10-16T15:30:33.875Z,30.95
2022-10-16T15:33:01.076Z,32.08
2022-10-16T15:35:28.262Z,31.40
2022-10-16T15:37:55.700Z,31.80
2022-10-16T15:40:24.018Z,31.10
2022-10-16T15:42:51.442Z,32.25
2022-10-16T15:45:20.152Z,32.60
2022-10-16T15:47:47.401Z,32.65
2022-10-16T15:50:16.069Z,34.25
2022-10-16T15:52:43.571Z,32.42
2022-10-16T15:55:13.104Z,33.03
2022-10-16T15:57:42.399Z,32.75
2022-10-16T16:00:13.526Z,32.35
2022-10-16T16:02:41.796Z,35.13
2022-10-16T16:05:10.394Z,35.33
2022-10-16T16:07:38.790Z,35.45
2022-10-16T16:10:08.932Z,36.38
2022-10-16T16:12:36.431Z,33.95
2022-10-16T16:15:05.786Z,34.28
2022-10-16T16:17:34.279Z,34.03
2022-10-16T16:20:01.946Z,34.55
2022-10-16T16:22:29.910Z,36.50
2022-10-16T16:24:57.355Z,36.80
2022-10-16T16:27:26.513Z,36.40
2022-10-16T16:29:54.442Z,35.53
2022-10-16T16:32:21.597Z,36.75
2022-10-16T16:34:48.923Z,35.47
2022-10-16T16:37:16.338Z,36.47
2022-10-16T16:39:43.439Z,36.70
2022-10-16T16:42:12.669Z,38.45
2022-10-16T16:44:40.618Z,38.55
2022-10-16T16:47:08.160Z,39.60
2022-10-16T16:49:35.315Z,39.13
2022-10-16T16:52:08.015Z,37.83
2022-10-16T16:54:35.254Z,39.30
2022-10-16T16:57:04.260Z,38.30
2022-10-16T16:59:36.721Z,36.78
2022-10-16T17:02:05.165Z,40.05
2022-10-16T17:04:33.977Z,40.63
2022-10-16T17:07:01.377Z,44.63
2022-10-16T17:09:32.048Z,41.83
2022-10-16T17:12:00.602Z,43.17
2022-10-16T17:14:28.044Z,41.50
2022-10-16T17:17:02.501Z,40.55
2022-10-16T17:19:29.593Z,41.00
2022-10-16T17:24:34.278Z,45.28
2022-10-16T17:27:01.730Z,43.08
2022-10-16T17:29:28.895Z,42.03
2022-10-16T17:31:59.469Z,42.10
2022-10-16T17:34:30.877Z,40.90
2022-10-16T17:36:58.350Z,39.42
2022-10-16T17:39:25.587Z,39.88
2022-10-16T17:41:53.558Z,40.97
2022-10-16T17:44:20.828Z,42.70
2022-10-16T17:46:51.111Z,41.63
2022-10-16T17:49:19.205Z,42.30
2022-10-16T17:51:50.814Z,44.05
2022-10-16T17:54:19.390Z,44.45
2022-10-16T17:56:49.186Z,45.28
2022-10-16T17:59:17.982Z,44.92
2022-10-16T18:01:46.472Z,42.30
2022-10-16T18:04:16.224Z,40.90
2022-10-16T18:06:46.461Z,40.40
2022-10-16T18:09:18.215Z,42.92
2022-10-16T18:11:47.133Z,41.60
2022-10-16T18:14:24.487Z,41.08
2022-10-16T18:17:07.442Z,41.50
2022-10-16T18:19:37.676Z,41.17
2022-10-16T18:22:08.223Z,42.03
2022-10-16T18:24:36.516Z,42.00
2022-10-16T18:27:04.132Z,42.20
2022-10-16T18:29:31.359Z,42.83
2022-10-16T18:31:58.495Z,39.95
2022-10-16T18:34:28.552Z,42.00
2022-10-16T18:36:56.631Z,41.95
2022-10-16T18:39:28.454Z,40.67
2022-10-16T18:42:01.457Z,42.35
2022-10-16T18:44:31.472Z,42.70
2022-10-16T18:46:59.262Z,41.97
2022-10-16T18:49:26.512Z,43.10
2022-10-16T18:51:56.849Z,43.33
2022-10-16T18:54:25.178Z,42.33
2022-10-16T18:56:53.324Z,43.38
2022-10-16T18:59:21.645Z,43.72
2022-10-16T19:01:50.733Z,42.47
2022-10-16T19:04:18.194Z,41.03
2022-10-16T19:06:48.750Z,42.22
2022-10-16T19:09:18.208Z,42.38
2022-10-16T19:11:45.666Z,43.88
2022-10-16T19:14:14.634Z,41.08
2022-10-16T19:16:43.225Z,42.92
2022-10-16T19:19:14.606Z,42.50
2022-10-16T19:21:44.047Z,43.28
2022-10-16T19:24:14.158Z,42.40
2022-10-16T19:26:42.242Z,44.42
2022-10-16T19:29:09.986Z,44.75
2022-10-16T19:31:37.757Z,44.63
2022-10-16T19:34:06.839Z,45.45
2022-10-16T19:36:36.486Z,43.95
2022-10-16T19:39:08.113Z,44.40
2022-10-16T19:41:37.087Z,45.90
2022-10-16T19:44:07.570Z,44.95
2022-10-16T19:46:36.131Z,43.38
2022-10-16T19:49:13.043Z,44.72
2022-10-16T19:51:41.226Z,44.38
2022-10-16T19:54:12.578Z,46.08
2022-10-16T19:56:40.153Z,44.67
2022-10-16T19:59:13.564Z,46.10
2022-10-16T20:01:42.032Z,44.10
2022-10-16T20:04:09.530Z,44.10
2022-10-16T20:06:36.916Z,42.42
2022-10-16T20:09:06.364Z,42.05
2022-10-16T20:11:35.694Z,42.92
2022-10-16T20:14:04.781Z,46.15
2022-10-16T20:16:33.821Z,46.80
2022-10-16T20:19:01.464Z,48.53
2022-10-16T20:21:31.739Z,47.70
2022-10-16T20:24:01.863Z,48.58
2022-10-16T20:26:29.214Z,46.90
2022-10-16T20:28:56.540Z,45.80
2022-10-16T20:31:27.491Z,43.55
2022-10-16T20:33:56.323Z,45.13
2022-10-16T20:36:27.353Z,48.65
2022-10-16T20:38:54.446Z,44.72
2022-10-16T20:41:21.902Z,44.17
2022-10-16T20:43:51.259Z,45.20
2022-10-16T20:46:22.147Z,42.50
2022-10-16T20:48:49.621Z,46.05
2022-10-16T20:51:23.274Z,46.70
2022-10-16T20:53:56.631Z,47.73
2022-10-16T20:56:25.154Z,45.38
2022-10-16T20:58:53.430Z,46.33
2022-10-16T21:01:23.193Z,42.53
2022-10-16T21:03:54.475Z,46.08
2022-10-16T21:06:22.120Z,47.47
2022-10-16T21:08:49.368Z,45.25
2022-10-16T21:11:19.907Z,42.28
2022-10-16T21:13:47.188Z,43.45
2022-10-16T21:16:15.490Z,43.75
2022-10-16T21:18:44.701Z,40.78
2022-10-16T21:21:21.506Z,41.72
2022-10-16T21:23:49.753Z,41.28
2022-10-16T21:26:18.375Z,39.90
2022-10-16T21:28:45.640Z,41.30
2022-10-16T21:31:14.901Z,40.78
2022-10-16T21:33:42.549Z,39.20
2022-10-16T21:36:15.194Z,37.28
2022-10-16T21:38:42.474Z,38.70
2022-10-16T21:41:16.485Z,38.70
2022-10-16T21:43:44.189Z,39.58
2022-10-16T21:46:11.466Z,35.83
2022-10-16T21:48:39.560Z,36.00
2022-10-16T21:51:06.817Z,36.20
2022-10-16T21:53:33.840Z,38.58
2022-10-16T21:56:01.110Z,39.08
2022-10-16T21:58:30.460Z,38.35
2022-10-16T22:00:57.563Z,35.65
2022-10-16T22:03:24.718Z,35.55
2022-10-16T22:05:52.078Z,34.03
2022-10-16T22:08:19.438Z,35.45
2022-10-16T22:10:46.959Z,37.60
2022-10-16T22:13:13.974Z,38.55
2022-10-16T22:15:49.095Z,37.60
2022-10-16T22:18:16.179Z,38.25
2022-10-16T22:20:46.921Z,39.97
2022-10-16T22:23:14.486Z,38.63
2022-10-16T22:25:42.395Z,35.72
2022-10-16T22:28:09.848Z,35.83
2022-10-16T22:30:38.484Z,34.83
2022-10-16T22:33:06.472Z,36.15
2022-10-16T22:35:41.398Z,34.97
2022-10-16T22:38:10.230Z,34.42
2022-10-16T22:40:38.438Z,35.90
2022-10-16T22:43:07.155Z,34.25
2022-10-16T22:45:36.121Z,30.60
2022-10-16T22:48:04.305Z,27.52
2022-10-16T22:50:32.454Z,31.45
2022-10-16T22:52:59.544Z,36.05
2022-10-16T22:55:26.958Z,36.50
2022-10-16T22:57:56.744Z,36.75
2022-10-16T23:00:24.259Z,37.15
2022-10-16T23:02:51.423Z,34.30
2022-10-16T23:05:18.568Z,35.22
2022-10-16T23:07:46.555Z,38.30
2022-10-16T23:10:13.772Z,36.13
2022-10-16T23:12:41.082Z,35.92
2022-10-16T23:15:08.486Z,34.33
2022-10-16T23:17:35.558Z,34.60
2022-10-16T23:20:02.807Z,34.90
2022-10-16T23:22:30.095Z,32.65
2022-10-16T23:24:57.442Z,34.80
2022-10-16T23:27:24.513Z,34.85
2022-10-16T23:29:51.841Z,32.55
2022-10-16T23:32:18.922Z,32.05
2022-10-16T23:34:47.697Z,29.20
2022-10-16T23:37:14.802Z,29.20
2022-10-16T23:39:41.915Z,34.83
2022-10-16T23:42:09.161Z,32.22
2022-10-16T23:44:36.306Z,32.05
2022-10-16T23:47:03.988Z,37.30
2022-10-16T23:49:31.086Z,38.05
2022-10-16T23:51:58.070Z,37.47
2022-10-16T23:54:25.189Z,38.08
2022-10-16T23:56:52.343Z,35.85
2022-10-16T23:59:19.531Z,36.55
